createdAt,value
2018-08-23T00:00:59.337Z,1010.12
2018-08-23T00:01:59.356Z,1010.16
2018-08-23T00:02:59.361Z,1010.14
2018-08-23T00:03:59.354Z,1010.13
2018-08-23T00:04:59.355Z,1010.11
2018-08-23T00:05:59.394Z,1010.11
2018-08-23T00:06:59.499Z,1010.07
2018-08-23T00:07:59.402Z,1010.03
2018-08-23T00:08:59.398Z,1010.05
2018-08-23T00:09:59.458Z,1010.01
2018-08-23T00:10:59.367Z,1010.01
2018-08-23T00:11:59.371Z,1010.03
2018-08-23T00:12:59.365Z,1010.04
2018-08-23T00:13:59.389Z,1009.98
2018-08-23T00:14:59.381Z,1009.99
2018-08-23T00:15:59.377Z,1009.99
2018-08-23T00:16:59.392Z,1010.00
2018-08-23T00:17:59.397Z,1010.01
2018-08-23T00:18:59.391Z,1009.97
2018-08-23T00:19:59.504Z,1009.98
2018-08-23T00:20:59.399Z,1009.96
2018-08-23T00:21:59.399Z,1009.98
2018-08-23T00:22:59.423Z,1010.01
2018-08-23T00:23:59.456Z,1009.98
2018-08-23T00:24:59.430Z,1009.92
2018-08-23T00:25:59.401Z,1009.93
2018-08-23T00:26:59.470Z,1009.93
2018-08-23T00:27:59.440Z,1009.92
2018-08-23T00:28:59.450Z,1009.90
2018-08-23T00:29:59.455Z,1009.88
2018-08-23T00:30:59.458Z,1009.89
2018-08-23T00:31:59.472Z,1009.88
2018-08-23T00:32:59.461Z,1009.84
2018-08-23T00:33:59.504Z,1009.82
2018-08-23T00:34:59.456Z,1009.81
2018-08-23T00:35:59.474Z,1009.81
2018-08-23T00:36:59.477Z,1009.80
2018-08-23T00:37:59.465Z,1009.83
2018-08-23T00:38:59.475Z,1009.82
2018-08-23T00:39:59.488Z,1009.79
2018-08-23T00:40:59.509Z,1009.80
2018-08-23T00:41:59.476Z,1009.79
2018-08-23T00:42:59.459Z,1009.79
2018-08-23T00:43:59.478Z,1009.79
2018-08-23T00:44:59.485Z,1009.75
2018-08-23T00:45:59.505Z,1009.76
2018-08-23T00:46:59.475Z,1009.77
2018-08-23T00:47:59.552Z,1009.74
2018-08-23T00:48:59.518Z,1009.77
2018-08-23T00:49:59.507Z,1009.76
2018-08-23T00:50:59.534Z,1009.72
2018-08-23T00:51:59.504Z,1009.70
2018-08-23T00:52:59.514Z,1009.74
2018-08-23T00:53:59.535Z,1009.72
2018-08-23T00:54:59.535Z,1009.71
2018-08-23T00:55:59.528Z,1009.71
2018-08-23T00:56:59.520Z,1009.71
2018-08-23T00:57:59.526Z,1009.71
2018-08-23T00:58:59.556Z,1009.75
2018-08-23T00:59:59.561Z,1009.75
2018-08-23T01:00:59.541Z,1009.71
2018-08-23T01:01:59.534Z,1009.68
2018-08-23T01:02:59.564Z,1009.69
2018-08-23T01:03:59.539Z,1009.67
2018-08-23T01:04:59.534Z,1009.65
2018-08-23T01:05:59.547Z,1009.63
2018-08-23T01:06:59.582Z,1009.63
2018-08-23T01:07:59.568Z,1009.65
2018-08-23T01:08:59.561Z,1009.64
2018-08-23T01:09:59.577Z,1009.65
2018-08-23T01:10:59.577Z,1009.66
2018-08-23T01:11:59.569Z,1009.64
2018-08-23T01:12:59.573Z,1009.62
2018-08-23T01:13:59.682Z,1009.62
2018-08-23T01:14:59.640Z,1009.62
2018-08-23T01:15:59.571Z,1009.63
2018-08-23T01:16:59.604Z,1009.59
2018-08-23T01:17:59.572Z,1009.59
2018-08-23T01:18:59.595Z,1009.60
2018-08-23T01:19:59.607Z,1009.60
2018-08-23T01:20:59.588Z,1009.57
2018-08-23T01:21:59.598Z,1009.59
2018-08-23T01:22:59.603Z,1009.60
2018-08-23T01:23:59.606Z,1009.58
2018-08-23T01:24:59.616Z,1009.59
2018-08-23T01:25:59.622Z,1009.55
2018-08-23T01:26:59.603Z,1009.60
2018-08-23T01:27:59.616Z,1009.57
2018-08-23T01:28:59.619Z,1009.59
2018-08-23T01:29:59.633Z,1009.57
2018-08-23T01:30:59.686Z,1009.56
2018-08-23T01:31:59.662Z,1009.53
2018-08-23T01:32:59.649Z,1009.55
2018-08-23T01:33:59.636Z,1009.53
2018-08-23T01:35:01.429Z,1009.56
2018-08-23T01:35:59.629Z,1009.51
2018-08-23T01:36:59.654Z,1009.52
2018-08-23T01:37:59.685Z,1009.53
2018-08-23T01:38:59.662Z,1009.50
2018-08-23T01:39:59.645Z,1009.49
2018-08-23T01:40:59.673Z,1009.49
2018-08-23T01:42:00.312Z,1009.48
2018-08-23T01:42:59.665Z,1009.47
2018-08-23T01:43:59.690Z,1009.51
2018-08-23T01:44:59.662Z,1009.50
2018-08-23T01:45:59.667Z,1009.48
2018-08-23T01:46:59.699Z,1009.48
2018-08-23T01:47:59.706Z,1009.43
2018-08-23T01:48:59.676Z,1009.47
2018-08-23T01:49:59.715Z,1009.42
2018-08-23T01:50:59.708Z,1009.46
2018-08-23T01:51:59.681Z,1009.43
2018-08-23T01:52:59.739Z,1009.43
2018-08-23T01:53:59.774Z,1009.45
2018-08-23T01:54:59.786Z,1009.43
2018-08-23T01:55:59.711Z,1009.43
2018-08-23T01:56:59.688Z,1009.43
2018-08-23T01:57:59.824Z,1009.40
2018-08-23T01:58:59.696Z,1009.40
2018-08-23T01:59:59.732Z,1009.37
2018-08-23T02:00:59.710Z,1009.35
2018-08-23T02:01:59.743Z,1009.34
2018-08-23T02:02:59.717Z,1009.35
2018-08-23T02:03:59.755Z,1009.32
2018-08-23T02:04:59.737Z,1009.31
2018-08-23T02:05:59.723Z,1009.29
2018-08-23T02:06:59.730Z,1009.33
2018-08-23T02:07:59.730Z,1009.29
2018-08-23T02:09:00.314Z,1009.27
2018-08-23T02:09:59.734Z,1009.28
2018-08-23T02:10:59.755Z,1009.25
2018-08-23T02:11:59.752Z,1009.24
2018-08-23T02:12:59.754Z,1009.24
2018-08-23T02:13:59.760Z,1009.21
2018-08-23T02:14:59.773Z,1009.19
2018-08-23T02:15:59.753Z,1009.20
2018-08-23T02:16:59.762Z,1009.22
2018-08-23T02:17:59.769Z,1009.23
2018-08-23T02:18:59.801Z,1009.19
2018-08-23T02:19:59.872Z,1009.19
2018-08-23T02:20:59.772Z,1009.18
2018-08-23T02:21:59.765Z,1009.18
2018-08-23T02:22:59.810Z,1009.19
2018-08-23T02:23:59.775Z,1009.16
2018-08-23T02:24:59.786Z,1009.16
2018-08-23T02:25:59.867Z,1009.11
2018-08-23T02:26:59.816Z,1009.10
2018-08-23T02:27:59.808Z,1009.08
2018-08-23T02:28:59.791Z,1009.07
2018-08-23T02:29:59.800Z,1009.10
2018-08-23T02:30:59.822Z,1009.12
2018-08-23T02:31:59.804Z,1009.09
2018-08-23T02:32:59.794Z,1009.08
2018-08-23T02:33:59.796Z,1009.10
2018-08-23T02:34:59.801Z,1009.10
2018-08-23T02:35:59.861Z,1009.08
2018-08-23T02:36:59.823Z,1009.09
2018-08-23T02:37:59.828Z,1009.09
2018-08-23T02:38:59.871Z,1009.05
2018-08-23T02:39:59.851Z,1009.05
2018-08-23T02:40:59.843Z,1009.07
2018-08-23T02:41:59.852Z,1009.04
2018-08-23T02:42:59.840Z,1009.02
2018-08-23T02:43:59.873Z,1009.03
2018-08-23T02:44:59.875Z,1009.04
2018-08-23T02:45:59.830Z,1008.98
2018-08-23T02:46:59.870Z,1008.97
2018-08-23T02:47:59.862Z,1008.97
2018-08-23T02:48:59.862Z,1008.96
2018-08-23T02:49:59.865Z,1008.98
2018-08-23T02:50:59.884Z,1008.98
2018-08-23T02:51:59.921Z,1008.98
2018-08-23T02:52:59.896Z,1008.97
2018-08-23T02:53:59.896Z,1008.97
2018-08-23T02:54:59.905Z,1008.97
2018-08-23T02:55:59.882Z,1008.96
2018-08-23T02:56:59.883Z,1008.94
2018-08-23T02:57:59.868Z,1008.92
2018-08-23T02:58:59.889Z,1008.91
2018-08-23T02:59:59.918Z,1008.91
2018-08-23T03:00:59.893Z,1008.90
2018-08-23T03:01:59.961Z,1008.89
2018-08-23T03:02:59.897Z,1008.90
2018-08-23T03:03:59.901Z,1008.89
2018-08-23T03:04:59.905Z,1008.92
2018-08-23T03:05:59.942Z,1008.92
2018-08-23T03:06:59.940Z,1008.90
2018-08-23T03:07:59.944Z,1008.88
2018-08-23T03:08:59.923Z,1008.87
2018-08-23T03:09:59.923Z,1008.87
2018-08-23T03:10:59.931Z,1008.85
2018-08-23T03:11:59.925Z,1008.83
2018-08-23T03:12:59.940Z,1008.84
2018-08-23T03:13:59.942Z,1008.80
2018-08-23T03:14:59.948Z,1008.85
2018-08-23T03:15:59.955Z,1008.82
2018-08-23T03:16:59.921Z,1008.82
2018-08-23T03:17:59.940Z,1008.74
2018-08-23T03:18:59.952Z,1008.77
2018-08-23T03:20:00.029Z,1008.73
2018-08-23T03:20:59.935Z,1008.75
2018-08-23T03:21:59.956Z,1008.72
2018-08-23T03:22:59.982Z,1008.72
2018-08-23T03:24:00.010Z,1008.68
2018-08-23T03:24:59.962Z,1008.71
2018-08-23T03:25:59.963Z,1008.67
2018-08-23T03:26:59.999Z,1008.70
2018-08-23T03:27:59.972Z,1008.69
2018-08-23T03:28:59.963Z,1008.70
2018-08-23T03:30:00.105Z,1008.70
2018-08-23T03:30:59.981Z,1008.71
2018-08-23T03:32:00.011Z,1008.71
2018-08-23T03:32:59.998Z,1008.71
2018-08-23T03:33:59.972Z,1008.70
2018-08-23T03:34:59.994Z,1008.71
2018-08-23T03:35:59.992Z,1008.77
2018-08-23T03:37:00.025Z,1008.73
2018-08-23T03:37:59.990Z,1008.70
2018-08-23T03:38:59.987Z,1008.75
2018-08-23T03:40:00.002Z,1008.73
2018-08-23T03:40:59.990Z,1008.74
2018-08-23T03:42:00.015Z,1008.73
2018-08-23T03:43:00.096Z,1008.71
2018-08-23T03:44:00.076Z,1008.69
2018-08-23T03:45:00.005Z,1008.71
2018-08-23T03:46:00.069Z,1008.70
2018-08-23T03:47:00.038Z,1008.75
2018-08-23T03:48:00.071Z,1008.75
2018-08-23T03:49:00.028Z,1008.71
2018-08-23T03:50:00.027Z,1008.72
2018-08-23T03:51:00.040Z,1008.70
2018-08-23T03:52:00.057Z,1008.73
2018-08-23T03:53:00.858Z,1008.72
2018-08-23T03:54:00.026Z,1008.69
2018-08-23T03:55:00.041Z,1008.68
2018-08-23T03:56:00.080Z,1008.69
2018-08-23T03:57:00.046Z,1008.70
2018-08-23T03:58:00.064Z,1008.65
2018-08-23T03:59:00.059Z,1008.68
2018-08-23T04:00:00.053Z,1008.72
2018-08-23T04:01:00.075Z,1008.72
2018-08-23T04:02:00.110Z,1008.64
2018-08-23T04:03:00.062Z,1008.67
2018-08-23T04:04:00.059Z,1008.63
2018-08-23T04:05:00.071Z,1008.62
2018-08-23T04:06:00.068Z,1008.61
2018-08-23T04:07:00.064Z,1008.61
2018-08-23T04:08:00.101Z,1008.64
2018-08-23T04:09:00.084Z,1008.62
2018-08-23T04:10:00.091Z,1008.60
2018-08-23T04:11:00.867Z,1008.62
2018-08-23T04:12:00.090Z,1008.63
2018-08-23T04:13:00.117Z,1008.60
2018-08-23T04:14:00.118Z,1008.57
2018-08-23T04:15:00.102Z,1008.57
2018-08-23T04:16:00.094Z,1008.57
2018-08-23T04:17:00.149Z,1008.56
2018-08-23T04:18:00.123Z,1008.54
2018-08-23T04:19:00.103Z,1008.59
2018-08-23T04:20:00.107Z,1008.59
2018-08-23T04:21:00.117Z,1008.57
2018-08-23T04:22:00.118Z,1008.61
2018-08-23T04:23:00.200Z,1008.57
2018-08-23T04:24:00.875Z,1008.61
2018-08-23T04:25:00.125Z,1008.59
2018-08-23T04:26:00.143Z,1008.62
2018-08-23T04:27:00.120Z,1008.63
2018-08-23T04:28:00.157Z,1008.62
2018-08-23T04:29:00.135Z,1008.58
2018-08-23T04:30:00.149Z,1008.61
2018-08-23T04:31:00.138Z,1008.65
2018-08-23T04:32:00.144Z,1008.62
2018-08-23T04:33:00.164Z,1008.61
2018-08-23T04:34:00.145Z,1008.59
2018-08-23T04:35:00.144Z,1008.60
2018-08-23T04:36:00.179Z,1008.58
2018-08-23T04:37:00.173Z,1008.62
2018-08-23T04:38:00.180Z,1008.59
2018-08-23T04:39:00.175Z,1008.61
2018-08-23T04:40:00.179Z,1008.59
2018-08-23T04:41:00.173Z,1008.58
2018-08-23T04:42:00.180Z,1008.54
2018-08-23T04:43:00.195Z,1008.55
2018-08-23T04:44:00.197Z,1008.55
2018-08-23T04:45:00.260Z,1008.57
2018-08-23T04:46:00.172Z,1008.55
2018-08-23T04:47:00.275Z,1008.56
2018-08-23T04:48:00.188Z,1008.57
2018-08-23T04:49:00.191Z,1008.55
2018-08-23T04:50:00.200Z,1008.54
2018-08-23T04:51:00.192Z,1008.55
2018-08-23T04:52:00.297Z,1008.54
2018-08-23T04:53:00.197Z,1008.54
2018-08-23T04:54:00.248Z,1008.54
2018-08-23T04:55:00.201Z,1008.51
2018-08-23T04:56:00.244Z,1008.53
2018-08-23T04:57:00.268Z,1008.53
2018-08-23T04:58:00.228Z,1008.54
2018-08-23T04:59:00.226Z,1008.52
2018-08-23T05:00:00.219Z,1008.49
2018-08-23T05:01:00.241Z,1008.47
2018-08-23T05:02:00.259Z,1008.50
2018-08-23T05:03:00.249Z,1008.43
2018-08-23T05:04:00.333Z,1008.44
2018-08-23T05:05:00.364Z,1008.45
2018-08-23T05:06:00.252Z,1008.46
2018-08-23T05:07:00.257Z,1008.45
2018-08-23T05:08:00.233Z,1008.43
2018-08-23T05:09:00.283Z,1008.43
2018-08-23T05:10:00.249Z,1008.43
2018-08-23T05:11:00.244Z,1008.42
2018-08-23T05:12:00.275Z,1008.44
2018-08-23T05:13:00.241Z,1008.48
2018-08-23T05:14:00.327Z,1008.43
2018-08-23T05:15:00.298Z,1008.39
2018-08-23T05:16:00.260Z,1008.43
2018-08-23T05:17:00.284Z,1008.44
2018-08-23T05:18:00.891Z,1008.42
2018-08-23T05:19:00.302Z,1008.42
2018-08-23T05:20:00.279Z,1008.47
2018-08-23T05:21:00.305Z,1008.44
2018-08-23T05:22:00.385Z,1008.49
2018-08-23T05:23:00.340Z,1008.48
2018-08-23T05:24:00.285Z,1008.46
2018-08-23T05:25:00.294Z,1008.45
2018-08-23T05:26:00.293Z,1008.45
2018-08-23T05:27:00.298Z,1008.44
2018-08-23T05:28:00.313Z,1008.46
2018-08-23T05:29:00.318Z,1008.43
2018-08-23T05:30:00.342Z,1008.50
2018-08-23T05:31:00.356Z,1008.49
2018-08-23T05:32:00.318Z,1008.48
2018-08-23T05:33:00.331Z,1008.47
2018-08-23T05:34:00.338Z,1008.44
2018-08-23T05:35:00.334Z,1008.45
2018-08-23T05:36:00.329Z,1008.45
2018-08-23T05:37:00.355Z,1008.46
2018-08-23T05:38:00.356Z,1008.45
2018-08-23T05:39:00.342Z,1008.44
2018-08-23T05:40:00.380Z,1008.47
2018-08-23T05:41:00.897Z,1008.49
2018-08-23T05:42:00.361Z,1008.49
2018-08-23T05:43:00.391Z,1008.46
2018-08-23T05:44:00.360Z,1008.47
2018-08-23T05:45:00.352Z,1008.47
2018-08-23T05:46:00.384Z,1008.45
2018-08-23T05:47:00.349Z,1008.44
2018-08-23T05:48:00.384Z,1008.44
2018-08-23T05:49:00.370Z,1008.46
2018-08-23T05:50:00.407Z,1008.49
2018-08-23T05:51:00.368Z,1008.51
2018-08-23T05:52:00.438Z,1008.48
2018-08-23T05:53:00.390Z,1008.44
2018-08-23T05:54:00.380Z,1008.43
2018-08-23T05:55:00.444Z,1008.48
2018-08-23T05:56:00.379Z,1008.49
2018-08-23T05:57:00.401Z,1008.46
2018-08-23T05:58:00.393Z,1008.45
2018-08-23T05:59:00.388Z,1008.45
2018-08-23T06:00:00.409Z,1008.51
2018-08-23T06:01:00.432Z,1008.54
2018-08-23T06:02:00.437Z,1008.52
2018-08-23T06:03:00.433Z,1008.52
2018-08-23T06:04:00.422Z,1008.49
2018-08-23T06:05:00.424Z,1008.50
2018-08-23T06:06:01.545Z,1008.56
2018-08-23T06:07:00.457Z,1008.52
2018-08-23T06:08:00.467Z,1008.49
2018-08-23T06:09:00.543Z,1008.54
2018-08-23T06:10:00.442Z,1008.57
2018-08-23T06:11:00.463Z,1008.56
2018-08-23T06:12:00.645Z,1008.57
2018-08-23T06:13:00.520Z,1008.61
2018-08-23T06:14:00.497Z,1008.61
2018-08-23T06:15:00.449Z,1008.59
2018-08-23T06:16:00.475Z,1008.61
2018-08-23T06:17:00.469Z,1008.61
2018-08-23T06:18:00.504Z,1008.64
2018-08-23T06:19:00.494Z,1008.66
2018-08-23T06:20:00.716Z,1008.76
2018-08-23T06:21:00.483Z,1008.75
2018-08-23T06:22:01.421Z,1008.78
2018-08-23T06:23:00.485Z,1008.80
2018-08-23T06:24:00.904Z,1008.76
2018-08-23T06:25:00.503Z,1008.79
2018-08-23T06:26:00.499Z,1008.75
2018-08-23T06:27:00.493Z,1008.74
2018-08-23T06:28:00.523Z,1008.70
2018-08-23T06:29:00.549Z,1008.74
2018-08-23T06:30:00.533Z,1008.78
2018-08-23T06:31:00.512Z,1008.77
2018-08-23T06:32:00.542Z,1008.77
2018-08-23T06:33:01.491Z,1008.78
2018-08-23T06:34:00.593Z,1008.84
2018-08-23T06:35:00.550Z,1008.81
2018-08-23T06:36:00.551Z,1008.78
2018-08-23T06:37:00.564Z,1008.82
2018-08-23T06:38:00.551Z,1008.82
2018-08-23T06:39:00.571Z,1008.80
2018-08-23T06:40:00.632Z,1008.80
2018-08-23T06:41:00.589Z,1008.78
2018-08-23T06:42:00.612Z,1008.81
2018-08-23T06:43:00.594Z,1008.84
2018-08-23T06:44:00.585Z,1008.86
2018-08-23T06:45:00.617Z,1008.83
2018-08-23T06:46:00.611Z,1008.87
2018-08-23T06:47:00.621Z,1008.90
2018-08-23T06:48:00.605Z,1008.92
2018-08-23T06:49:00.724Z,1008.91
2018-08-23T06:50:00.691Z,1008.92
2018-08-23T06:51:00.732Z,1008.91
2018-08-23T06:52:00.677Z,1008.91
2018-08-23T06:53:00.768Z,1008.95
2018-08-23T06:54:00.703Z,1008.90
2018-08-23T06:55:00.662Z,1008.90
2018-08-23T06:56:00.674Z,1008.96
2018-08-23T06:57:00.685Z,1009.01
2018-08-23T06:58:00.688Z,1009.03
2018-08-23T06:59:00.730Z,1009.03
2018-08-23T07:00:00.674Z,1009.04
2018-08-23T07:01:00.701Z,1009.05
2018-08-23T07:02:00.695Z,1009.06
2018-08-23T07:03:01.448Z,1009.06
2018-08-23T07:04:00.724Z,1009.02
2018-08-23T07:05:00.738Z,1009.05
2018-08-23T07:06:00.764Z,1009.08
2018-08-23T07:07:00.717Z,1009.12
2018-08-23T07:08:00.824Z,1009.11
2018-08-23T07:09:00.741Z,1009.10
2018-08-23T07:10:00.746Z,1009.13
2018-08-23T07:11:00.760Z,1009.17
2018-08-23T07:12:00.759Z,1009.14
2018-08-23T07:13:00.790Z,1009.16
2018-08-23T07:14:00.766Z,1009.21
2018-08-23T07:15:00.773Z,1009.23
2018-08-23T07:16:00.865Z,1009.22
2018-08-23T07:17:00.829Z,1009.19
2018-08-23T07:18:00.830Z,1009.21
2018-08-23T07:19:00.827Z,1009.24
2018-08-23T07:20:00.837Z,1009.26
2018-08-23T07:21:00.908Z,1009.26
2018-08-23T07:22:00.893Z,1009.23
2018-08-23T07:23:00.915Z,1009.28
2018-08-23T07:24:00.873Z,1009.27
2018-08-23T07:25:00.920Z,1009.32
2018-08-23T07:26:00.891Z,1009.36
2018-08-23T07:27:00.899Z,1009.31
2018-08-23T07:28:01.318Z,1009.34
2018-08-23T07:29:00.998Z,1009.37
2018-08-23T07:30:01.059Z,1009.37
2018-08-23T07:31:01.081Z,1009.40
2018-08-23T07:32:00.969Z,1009.31
2018-08-23T07:33:00.995Z,1009.39
2018-08-23T07:34:00.972Z,1009.44
2018-08-23T07:35:00.991Z,1009.44
2018-08-23T07:36:01.019Z,1009.48
2018-08-23T07:37:01.329Z,1009.49
2018-08-23T07:38:01.061Z,1009.53
2018-08-23T07:39:01.038Z,1009.56
2018-08-23T07:40:01.122Z,1009.55
2018-08-23T07:41:01.087Z,1009.54
2018-08-23T07:42:01.069Z,1009.59
2018-08-23T07:43:01.357Z,1009.58
2018-08-23T07:44:01.149Z,1009.68
2018-08-23T07:45:01.147Z,1009.67
2018-08-23T07:46:01.081Z,1009.62
2018-08-23T07:47:01.243Z,1009.72
2018-08-23T07:48:01.089Z,1009.80
2018-08-23T07:49:01.104Z,1009.77
2018-08-23T07:50:01.110Z,1009.73
2018-08-23T07:51:01.990Z,1009.79
2018-08-23T07:52:01.145Z,1009.84
2018-08-23T07:53:01.194Z,1009.84
2018-08-23T07:54:01.208Z,1009.94
2018-08-23T07:55:01.188Z,1009.95
2018-08-23T07:56:01.207Z,1009.90
2018-08-23T07:57:01.227Z,1010.00
2018-08-23T07:58:01.348Z,1010.02
2018-08-23T07:59:01.326Z,1010.09
2018-08-23T08:00:01.267Z,1010.04
2018-08-23T08:01:01.258Z,1010.17
2018-08-23T08:02:01.345Z,1010.17
2018-08-23T08:03:01.293Z,1010.15
2018-08-23T08:04:02.007Z,1010.30
2018-08-23T08:05:01.382Z,1010.31
2018-08-23T08:06:01.385Z,1010.28
2018-08-23T08:07:01.362Z,1010.38
2018-08-23T08:08:02.000Z,1010.33
2018-08-23T08:09:02.520Z,1010.31
2018-08-23T08:10:01.451Z,1010.49
2018-08-23T08:11:03.502Z,1010.57
2018-08-23T08:12:02.034Z,1010.55
2018-08-23T08:13:03.505Z,1009.57
2018-08-23T08:14:05.000Z,1010.76
2018-08-23T08:15:02.527Z,1010.70
2018-08-23T08:16:02.074Z,1010.67
2018-08-23T08:17:01.538Z,1010.95
2018-08-23T08:18:01.500Z,1010.76
2018-08-23T08:19:03.504Z,1010.90
2018-08-23T08:20:01.526Z,1011.15
2018-08-23T08:21:02.184Z,1010.26
2018-08-23T08:22:02.011Z,1011.21
2018-08-23T08:23:02.507Z,1011.06
2018-08-23T08:24:02.551Z,1010.08
2018-08-23T08:25:02.510Z,1011.06
2018-08-23T08:26:02.081Z,1011.85
2018-08-23T08:27:02.524Z,1012.45
2018-08-23T08:28:02.615Z,1013.48
2018-08-23T08:29:02.749Z,1013.09
2018-08-23T08:30:02.578Z,1013.70
2018-08-23T08:31:03.713Z,1013.79
2018-08-23T08:32:02.621Z,1013.18
2018-08-23T08:33:03.543Z,1012.86
2018-08-23T08:34:02.619Z,1012.61
2018-08-23T08:35:03.516Z,1009.21
2018-08-23T08:36:02.681Z,1011.93
2018-08-23T08:37:02.529Z,1011.73
2018-08-23T08:38:03.538Z,1011.60
2018-08-23T08:39:02.558Z,1011.58
2018-08-23T08:40:02.661Z,1011.54
2018-08-23T08:41:02.592Z,1011.44
2018-08-23T08:42:04.116Z,1011.54
2018-08-23T08:43:03.527Z,1011.31
2018-08-23T08:44:02.787Z,1011.40
2018-08-23T08:45:02.722Z,1011.28
2018-08-23T08:46:02.754Z,1011.30
2018-08-23T08:47:03.112Z,1011.31
2018-08-23T08:48:05.522Z,1011.31
2018-08-23T08:49:02.775Z,1011.36
2018-08-23T08:50:01.944Z,1011.27
2018-08-23T08:51:02.526Z,1011.36
2018-08-23T08:52:02.078Z,1011.44
2018-08-23T08:53:02.029Z,1011.53
2018-08-23T08:54:02.010Z,1011.48
2018-08-23T08:55:02.011Z,1011.81
2018-08-23T08:56:02.035Z,1012.07
2018-08-23T08:57:02.078Z,1013.00
2018-08-23T08:58:02.101Z,1015.06
2018-08-23T08:59:02.078Z,1017.14
2018-08-23T09:00:02.078Z,1024.22
2018-08-23T09:01:02.107Z,1029.52
2018-08-23T09:02:02.113Z,1028.50
2018-08-23T09:03:02.190Z,1026.39
2018-08-23T09:04:03.243Z,1024.82
2018-08-23T09:05:02.287Z,1026.43
2018-08-23T09:06:02.196Z,1024.57
2018-08-23T09:07:02.188Z,1028.51
2018-08-23T09:08:02.249Z,1028.29
2018-08-23T09:09:02.280Z,1027.92
2018-08-23T09:10:02.246Z,1027.11
2018-08-23T09:11:02.267Z,1025.98
2018-08-23T09:12:02.593Z,1024.48
2018-08-23T09:13:02.304Z,1021.69
2018-08-23T09:14:02.411Z,1021.02
2018-08-23T09:15:02.335Z,1019.91
2018-08-23T09:16:03.046Z,1018.61
2018-08-23T09:17:02.368Z,1017.80
2018-08-23T09:18:03.274Z,1016.46
2018-08-23T09:19:02.508Z,1015.45
2018-08-23T09:20:02.454Z,1014.56
2018-08-23T09:21:02.422Z,1013.97
2018-08-23T09:22:02.470Z,1013.58
2018-08-23T09:23:02.763Z,1012.71
2018-08-23T09:24:03.583Z,1011.94
2018-08-23T09:25:02.502Z,1011.46
2018-08-23T09:26:03.107Z,1010.82
2018-08-23T09:27:02.550Z,1010.31
2018-08-23T09:28:02.548Z,1009.95
2018-08-23T09:29:02.587Z,1009.98
2018-08-23T09:30:02.611Z,1009.83
2018-08-23T09:31:02.621Z,1009.87
2018-08-23T09:32:02.720Z,1009.69
2018-08-23T09:33:02.686Z,1009.70
2018-08-23T09:34:02.744Z,1009.75
2018-08-23T09:35:02.778Z,1009.69
2018-08-23T09:36:02.759Z,1009.67
2018-08-23T09:37:02.873Z,1009.65
2018-08-23T09:38:02.778Z,1009.77
2018-08-23T09:39:02.772Z,1009.68
2018-08-23T09:40:03.207Z,1009.85
2018-08-23T09:41:02.813Z,1010.00
2018-08-23T09:42:02.812Z,1010.03
2018-08-23T09:43:02.961Z,1010.18
2018-08-23T09:44:02.979Z,1008.59
2018-08-23T09:45:02.866Z,1009.81
2018-08-23T09:46:02.868Z,1010.90
2018-08-23T09:47:02.917Z,1008.79
2018-08-23T09:48:03.178Z,1011.65
2018-08-23T09:49:02.957Z,1011.62
2018-08-23T09:50:03.041Z,1012.05
2018-08-23T09:51:03.055Z,1012.69
2018-08-23T09:52:02.995Z,1012.58
2018-08-23T09:53:03.018Z,1012.70
2018-08-23T09:54:03.129Z,1012.94
2018-08-23T09:55:03.062Z,1012.56
2018-08-23T09:56:03.184Z,1012.40
2018-08-23T09:57:05.696Z,1012.52
2018-08-23T09:58:03.119Z,1012.40
2018-08-23T09:59:03.329Z,1012.15
2018-08-23T10:00:03.223Z,1011.95
2018-08-23T10:01:03.197Z,1011.62
2018-08-23T10:02:03.165Z,1010.68
2018-08-23T10:03:03.260Z,1010.72
2018-08-23T10:04:03.227Z,1010.45
2018-08-23T10:05:04.171Z,1010.04
2018-08-23T10:06:03.259Z,1009.74
2018-08-23T10:07:03.286Z,1009.46
2018-08-23T10:08:03.300Z,1009.38
2018-08-23T10:09:03.357Z,1009.20
2018-08-23T10:10:03.335Z,1009.07
2018-08-23T10:11:04.158Z,1009.11
2018-08-23T10:12:03.569Z,1008.99
2018-08-23T10:13:03.424Z,1009.01
2018-08-23T10:14:03.418Z,1008.97
2018-08-23T10:15:03.542Z,1008.84
2018-08-23T10:16:03.471Z,1008.35
2018-08-23T10:17:03.500Z,1008.81
2018-08-23T10:18:03.493Z,1008.45
2018-08-23T10:19:03.515Z,1008.71
2018-08-23T10:20:03.516Z,1008.95
2018-08-23T10:21:03.542Z,1008.32
2018-08-23T10:22:03.567Z,1008.24
2018-08-23T10:23:03.593Z,1008.23
2018-08-23T10:24:03.721Z,1008.26
2018-08-23T10:25:03.648Z,1008.08
2018-08-23T10:26:03.645Z,1008.09
2018-08-23T10:27:03.810Z,1008.07
2018-08-23T10:28:03.727Z,1008.14
2018-08-23T10:29:03.762Z,1008.52
2018-08-23T10:30:03.707Z,1008.63
2018-08-23T10:31:03.974Z,1008.54
2018-08-23T10:32:03.732Z,1008.55
2018-08-23T10:33:03.829Z,1008.63
2018-08-23T10:34:04.674Z,1008.47
2018-08-23T10:35:03.822Z,1008.07
2018-08-23T10:36:03.893Z,1008.36
2018-08-23T10:37:04.029Z,1008.47
2018-08-23T10:38:03.920Z,1008.57
2018-08-23T10:39:03.889Z,1008.07
2018-08-23T10:40:03.905Z,1007.96
2018-08-23T10:41:03.886Z,1007.91
2018-08-23T10:42:03.930Z,1007.94
2018-08-23T10:43:05.205Z,1007.97
2018-08-23T10:44:04.290Z,1007.85
2018-08-23T10:45:03.975Z,1007.91
2018-08-23T10:46:04.019Z,1007.93
2018-08-23T10:47:04.002Z,1008.07
2018-08-23T10:48:04.694Z,1008.14
2018-08-23T10:49:04.050Z,1008.28
2018-08-23T10:50:04.046Z,1008.27
2018-08-23T10:51:04.086Z,1008.34
2018-08-23T10:52:04.231Z,1007.98
2018-08-23T10:53:04.146Z,1008.24
2018-08-23T10:54:04.685Z,1008.12
2018-08-23T10:55:04.155Z,1007.82
2018-08-23T10:56:04.136Z,1008.07
2018-08-23T10:57:04.174Z,1008.17
2018-08-23T10:58:04.214Z,1008.15
2018-08-23T10:59:04.221Z,1008.15
2018-08-23T11:00:04.213Z,1008.12
2018-08-23T11:01:04.226Z,1008.09
2018-08-23T11:02:04.219Z,1008.04
2018-08-23T11:03:04.217Z,1008.16
2018-08-23T11:04:05.200Z,1008.10
2018-08-23T11:05:04.255Z,1008.04
2018-08-23T11:06:04.301Z,1007.98
2018-08-23T11:07:04.283Z,1007.91
2018-08-23T11:08:04.375Z,1007.88
2018-08-23T11:09:04.385Z,1007.74
2018-08-23T11:10:04.329Z,1007.75
2018-08-23T11:11:04.820Z,1007.71
2018-08-23T11:12:05.201Z,1007.64
2018-08-23T11:13:04.373Z,1007.70
2018-08-23T11:14:04.370Z,1007.75
2018-08-23T11:15:04.433Z,1007.64
2018-08-23T11:16:04.543Z,1007.65
2018-08-23T11:17:04.596Z,1007.72
2018-08-23T11:18:04.457Z,1007.73
2018-08-23T11:19:04.459Z,1007.70
2018-08-23T11:20:04.466Z,1007.53
2018-08-23T11:21:04.566Z,1007.49
2018-08-23T11:22:04.765Z,1007.64
2018-08-23T11:23:04.592Z,1007.64
2018-08-23T11:24:04.596Z,1007.49
2018-08-23T11:25:04.512Z,1007.55
2018-08-23T11:26:04.569Z,1007.67
2018-08-23T11:27:04.623Z,1007.60
2018-08-23T11:28:04.704Z,1007.56
2018-08-23T11:29:04.711Z,1007.53
2018-08-23T11:30:04.683Z,1007.53
2018-08-23T11:31:04.630Z,1007.49
2018-08-23T11:32:04.661Z,1007.45
2018-08-23T11:33:04.767Z,1007.53
2018-08-23T11:34:04.888Z,1007.49
2018-08-23T11:35:04.758Z,1007.51
2018-08-23T11:36:04.686Z,1007.55
2018-08-23T11:37:04.744Z,1007.59
2018-08-23T11:38:04.698Z,1007.58
2018-08-23T11:39:04.814Z,1007.59
2018-08-23T11:40:04.762Z,1007.66
2018-08-23T11:41:04.843Z,1007.68
2018-08-23T11:42:04.914Z,1007.61
2018-08-23T11:43:05.718Z,1007.59
2018-08-23T11:44:05.397Z,1007.57
2018-08-23T11:45:05.385Z,1007.39
2018-08-23T11:46:04.850Z,1007.40
2018-08-23T11:47:04.832Z,1007.35
2018-08-23T11:48:05.539Z,1007.27
2018-08-23T11:49:04.886Z,1007.31
2018-08-23T11:50:05.348Z,1007.26
2018-08-23T11:51:04.849Z,1007.31
2018-08-23T11:52:04.972Z,1007.31
2018-08-23T11:53:05.450Z,1007.24
2018-08-23T11:54:05.121Z,1007.19
2018-08-23T11:55:04.981Z,1007.26
2018-08-23T11:56:05.028Z,1007.28
2018-08-23T11:57:05.081Z,1007.25
2018-08-23T11:58:05.047Z,1007.28
2018-08-23T11:59:04.965Z,1007.25
2018-08-23T12:00:05.728Z,1007.29
2018-08-23T12:01:07.895Z,1007.32
2018-08-23T12:02:04.975Z,1007.32
2018-08-23T12:03:05.280Z,1007.30
2018-08-23T12:04:05.862Z,1007.30
2018-08-23T12:05:04.994Z,1007.25
2018-08-23T12:06:05.164Z,1007.25